sensor_id;sensor_type;location;lat;lon;timestamp;P1;durP1;ratioP1;P2;durP2;ratioP2
20743;SDS011;56303;52.160;-0.428;2023-04-25T00:01:55;8.43;;;3.53;;
20743;SDS011;56303;52.160;-0.428;2023-04-25T00:04:22;14.77;;;4.03;;
20743;SDS011;56303;52.160;-0.428;2023-04-25T00:06:50;9.20;;;3.23;;
20743;SDS011;56303;52.160;-0.428;2023-04-25T00:09:18;10.03;;;3.23;;
20743;SDS011;56303;52.160;-0.428;2023-04-25T00:11:45;11.60;;;3.20;;
20743;SDS011;56303;52.160;-0.428;2023-04-25T00:14:12;10.47;;;3.30;;
20743;SDS011;56303;52.160;-0.428;2023-04-25T00:16:39;9.70;;;3.17;;
20743;SDS011;56303;52.160;-0.428;2023-04-25T00:19:07;8.27;;;3.20;;
20743;SDS011;56303;52.160;-0.428;2023-04-25T00:21:36;12.67;;;3.00;;
20743;SDS011;56303;52.160;-0.428;2023-04-25T00:24:06;8.97;;;3.10;;
20743;SDS011;56303;52.160;-0.428;2023-04-25T00:26:34;10.50;;;3.10;;
20743;SDS011;56303;52.160;-0.428;2023-04-25T00:29:02;9.37;;;4.00;;
20743;SDS011;56303;52.160;-0.428;2023-04-25T00:31:29;9.23;;;3.07;;
20743;SDS011;56303;52.160;-0.428;2023-04-25T00:33:56;13.07;;;3.50;;
20743;SDS011;56303;52.160;-0.428;2023-04-25T00:36:23;11.40;;;3.13;;
20743;SDS011;56303;52.160;-0.428;2023-04-25T00:38:49;6.97;;;2.90;;
20743;SDS011;56303;52.160;-0.428;2023-04-25T00:41:16;7.23;;;3.30;;
20743;SDS011;56303;52.160;-0.428;2023-04-25T00:43:44;9.43;;;3.20;;
20743;SDS011;56303;52.160;-0.428;2023-04-25T00:46:13;8.60;;;3.20;;
20743;SDS011;56303;52.160;-0.428;2023-04-25T00:48:40;7.93;;;2.60;;
20743;SDS011;56303;52.160;-0.428;2023-04-25T00:51:07;11.10;;;3.67;;
20743;SDS011;56303;52.160;-0.428;2023-04-25T00:53:34;5.40;;;3.43;;
20743;SDS011;56303;52.160;-0.428;2023-04-25T00:56:00;10.83;;;3.60;;
20743;SDS011;56303;52.160;-0.428;2023-04-25T00:58:27;9.40;;;2.87;;
20743;SDS011;56303;52.160;-0.428;2023-04-25T01:00:54;10.17;;;3.73;;
20743;SDS011;56303;52.160;-0.428;2023-04-25T01:03:23;9.70;;;3.43;;
20743;SDS011;56303;52.160;-0.428;2023-04-25T01:05:51;8.23;;;2.63;;
20743;SDS011;56303;52.160;-0.428;2023-04-25T01:08:18;10.07;;;3.27;;
20743;SDS011;56303;52.160;-0.428;2023-04-25T01:10:47;8.50;;;3.30;;
20743;SDS011;56303;52.160;-0.428;2023-04-25T01:13:14;5.70;;;2.93;;
20743;SDS011;56303;52.160;-0.428;2023-04-25T01:15:41;10.47;;;3.87;;
20743;SDS011;56303;52.160;-0.428;2023-04-25T01:18:07;7.47;;;3.73;;
20743;SDS011;56303;52.160;-0.428;2023-04-25T01:20:34;8.70;;;3.57;;
20743;SDS011;56303;52.160;-0.428;2023-04-25T01:23:03;13.77;;;3.73;;
20743;SDS011;56303;52.160;-0.428;2023-04-25T01:25:30;7.33;;;3.20;;
20743;SDS011;56303;52.160;-0.428;2023-04-25T01:27:57;8.53;;;3.23;;
20743;SDS011;56303;52.160;-0.428;2023-04-25T01:30:27;13.43;;;3.50;;
20743;SDS011;56303;52.160;-0.428;2023-04-25T01:32:55;13.07;;;4.40;;
20743;SDS011;56303;52.160;-0.428;2023-04-25T01:35:23;9.83;;;3.73;;
20743;SDS011;56303;52.160;-0.428;2023-04-25T01:37:50;10.13;;;3.83;;
20743;SDS011;56303;52.160;-0.428;2023-04-25T01:40:18;8.70;;;3.70;;
20743;SDS011;56303;52.160;-0.428;2023-04-25T01:42:46;10.80;;;4.13;;
20743;SDS011;56303;52.160;-0.428;2023-04-25T01:45:14;11.83;;;3.63;;
20743;SDS011;56303;52.160;-0.428;2023-04-25T01:47:41;11.07;;;4.20;;
20743;SDS011;56303;52.160;-0.428;2023-04-25T01:50:10;13.53;;;5.33;;
20743;SDS011;56303;52.160;-0.428;2023-04-25T01:52:37;13.23;;;4.87;;
20743;SDS011;56303;52.160;-0.428;2023-04-25T01:55:05;10.63;;;4.10;;
20743;SDS011;56303;52.160;-0.428;2023-04-25T01:57:33;9.83;;;3.93;;
20743;SDS011;56303;52.160;-0.428;2023-04-25T02:00:01;15.37;;;4.13;;
20743;SDS011;56303;52.160;-0.428;2023-04-25T02:02:30;10.07;;;4.17;;
20743;SDS011;56303;52.160;-0.428;2023-04-25T02:04:57;17.57;;;3.90;;
20743;SDS011;56303;52.160;-0.428;2023-04-25T02:07:25;13.27;;;4.43;;
20743;SDS011;56303;52.160;-0.428;2023-04-25T02:09:52;12.20;;;3.80;;
20743;SDS011;56303;52.160;-0.428;2023-04-25T02:12:19;12.20;;;4.60;;
20743;SDS011;56303;52.160;-0.428;2023-04-25T02:14:46;9.27;;;3.83;;
20743;SDS011;56303;52.160;-0.428;2023-04-25T02:17:14;7.43;;;2.97;;
20743;SDS011;56303;52.160;-0.428;2023-04-25T02:19:40;7.90;;;3.83;;
20743;SDS011;56303;52.160;-0.428;2023-04-25T02:22:08;8.50;;;4.00;;
20743;SDS011;56303;52.160;-0.428;2023-04-25T02:24:36;8.40;;;3.83;;
20743;SDS011;56303;52.160;-0.428;2023-04-25T02:27:03;8.67;;;3.70;;
20743;SDS011;56303;52.160;-0.428;2023-04-25T02:29:30;10.97;;;4.13;;
20743;SDS011;56303;52.160;-0.428;2023-04-25T02:31:56;11.33;;;3.77;;
20743;SDS011;56303;52.160;-0.428;2023-04-25T02:34:23;11.90;;;5.03;;
20743;SDS011;56303;52.160;-0.428;2023-04-25T02:36:50;7.93;;;4.10;;
20743;SDS011;56303;52.160;-0.428;2023-04-25T02:39:17;10.63;;;3.90;;
20743;SDS011;56303;52.160;-0.428;2023-04-25T02:41:43;12.10;;;4.10;;
20743;SDS011;56303;52.160;-0.428;2023-04-25T02:44:10;11.03;;;4.20;;
20743;SDS011;56303;52.160;-0.428;2023-04-25T02:46:38;7.73;;;3.97;;
20743;SDS011;56303;52.160;-0.428;2023-04-25T02:49:05;12.03;;;4.37;;
20743;SDS011;56303;52.160;-0.428;2023-04-25T02:51:32;12.10;;;4.10;;
20743;SDS011;56303;52.160;-0.428;2023-04-25T02:53:59;8.60;;;3.63;;
20743;SDS011;56303;52.160;-0.428;2023-04-25T02:56:26;9.47;;;4.43;;
20743;SDS011;56303;52.160;-0.428;2023-04-25T02:58:53;9.70;;;4.30;;
20743;SDS011;56303;52.160;-0.428;2023-04-25T03:01:20;14.67;;;4.70;;
20743;SDS011;56303;52.160;-0.428;2023-04-25T03:03:46;8.27;;;3.63;;
20743;SDS011;56303;52.160;-0.428;2023-04-25T03:06:14;10.13;;;3.67;;
20743;SDS011;56303;52.160;-0.428;2023-04-25T03:08:41;13.47;;;4.03;;
20743;SDS011;56303;52.160;-0.428;2023-04-25T03:11:09;6.93;;;4.40;;
20743;SDS011;56303;52.160;-0.428;2023-04-25T03:13:36;14.27;;;4.57;;
20743;SDS011;56303;52.160;-0.428;2023-04-25T03:16:03;11.33;;;4.77;;
20743;SDS011;56303;52.160;-0.428;2023-04-25T03:18:31;10.50;;;4.87;;
20743;SDS011;56303;52.160;-0.428;2023-04-25T03:20:57;10.93;;;3.77;;
20743;SDS011;56303;52.160;-0.428;2023-04-25T03:23:24;12.50;;;5.60;;
20743;SDS011;56303;52.160;-0.428;2023-04-25T03:25:52;12.43;;;4.00;;
20743;SDS011;56303;52.160;-0.428;2023-04-25T03:28:18;10.57;;;4.27;;
20743;SDS011;56303;52.160;-0.428;2023-04-25T03:30:46;8.37;;;3.50;;
20743;SDS011;56303;52.160;-0.428;2023-04-25T03:33:13;8.80;;;4.07;;
20743;SDS011;56303;52.160;-0.428;2023-04-25T03:35:39;9.83;;;3.50;;
20743;SDS011;56303;52.160;-0.428;2023-04-25T03:38:06;12.10;;;4.10;;
20743;SDS011;56303;52.160;-0.428;2023-04-25T03:40:33;11.60;;;3.60;;
20743;SDS011;56303;52.160;-0.428;2023-04-25T03:43:00;9.50;;;4.07;;
20743;SDS011;56303;52.160;-0.428;2023-04-25T03:45:27;11.83;;;3.80;;
20743;SDS011;56303;52.160;-0.428;2023-04-25T03:47:53;9.73;;;4.07;;
20743;SDS011;56303;52.160;-0.428;2023-04-25T03:50:20;12.33;;;4.77;;
20743;SDS011;56303;52.160;-0.428;2023-04-25T03:52:47;9.73;;;4.07;;
20743;SDS011;56303;52.160;-0.428;2023-04-25T03:55:14;10.73;;;3.93;;
20743;SDS011;56303;52.160;-0.428;2023-04-25T03:57:41;7.73;;;3.60;;
20743;SDS011;56303;52.160;-0.428;2023-04-25T04:00:07;10.37;;;3.87;;
20743;SDS011;56303;52.160;-0.428;2023-04-25T04:02:35;12.50;;;4.20;;
20743;SDS011;56303;52.160;-0.428;2023-04-25T04:05:04;10.97;;;4.20;;
20743;SDS011;56303;52.160;-0.428;2023-04-25T04:07:32;10.47;;;3.90;;
20743;SDS011;56303;52.160;-0.428;2023-04-25T04:09:59;6.40;;;3.60;;
20743;SDS011;56303;52.160;-0.428;2023-04-25T04:12:26;7.30;;;3.80;;
20743;SDS011;56303;52.160;-0.428;2023-04-25T04:14:53;11.87;;;3.83;;
20743;SDS011;56303;52.160;-0.428;2023-04-25T04:17:19;10.10;;;4.03;;
20743;SDS011;56303;52.160;-0.428;2023-04-25T04:19:46;6.90;;;3.70;;
20743;SDS011;56303;52.160;-0.428;2023-04-25T04:22:13;13.73;;;5.03;;
20743;SDS011;56303;52.160;-0.428;2023-04-25T04:24:40;8.80;;;3.67;;
20743;SDS011;56303;52.160;-0.428;2023-04-25T04:27:10;10.27;;;3.40;;
20743;SDS011;56303;52.160;-0.428;2023-04-25T04:29:38;11.07;;;3.93;;
20743;SDS011;56303;52.160;-0.428;2023-04-25T04:32:05;10.43;;;3.83;;
20743;SDS011;56303;52.160;-0.428;2023-04-25T04:34:34;11.23;;;4.43;;
20743;SDS011;56303;52.160;-0.428;2023-04-25T04:37:01;7.50;;;3.13;;
20743;SDS011;56303;52.160;-0.428;2023-04-25T04:39:28;7.83;;;3.47;;
20743;SDS011;56303;52.160;-0.428;2023-04-25T04:41:55;5.73;;;3.03;;
20743;SDS011;56303;52.160;-0.428;2023-04-25T04:44:22;6.93;;;3.13;;
20743;SDS011;56303;52.160;-0.428;2023-04-25T04:46:49;8.87;;;3.80;;
20743;SDS011;56303;52.160;-0.428;2023-04-25T04:49:16;7.70;;;3.27;;
20743;SDS011;56303;52.160;-0.428;2023-04-25T04:51:43;9.73;;;3.57;;
20743;SDS011;56303;52.160;-0.428;2023-04-25T04:54:10;9.63;;;3.77;;
20743;SDS011;56303;52.160;-0.428;2023-04-25T04:56:37;11.27;;;4.03;;
20743;SDS011;56303;52.160;-0.428;2023-04-25T04:59:04;8.70;;;3.70;;
20743;SDS011;56303;52.160;-0.428;2023-04-25T05:01:31;7.47;;;3.90;;
20743;SDS011;56303;52.160;-0.428;2023-04-25T05:03:58;10.07;;;3.50;;
20743;SDS011;56303;52.160;-0.428;2023-04-25T05:06:27;8.10;;;3.30;;
20743;SDS011;56303;52.160;-0.428;2023-04-25T05:08:57;8.40;;;3.50;;
20743;SDS011;56303;52.160;-0.428;2023-04-25T05:11:26;10.87;;;3.77;;
20743;SDS011;56303;52.160;-0.428;2023-04-25T05:13:52;9.10;;;4.33;;
20743;SDS011;56303;52.160;-0.428;2023-04-25T05:16:19;9.67;;;3.87;;
20743;SDS011;56303;52.160;-0.428;2023-04-25T05:18:47;13.23;;;4.63;;
20743;SDS011;56303;52.160;-0.428;2023-04-25T05:21:17;7.50;;;3.37;;
20743;SDS011;56303;52.160;-0.428;2023-04-25T05:23:43;11.67;;;3.60;;
20743;SDS011;56303;52.160;-0.428;2023-04-25T05:26:10;9.13;;;4.00;;
20743;SDS011;56303;52.160;-0.428;2023-04-25T05:28:40;11.50;;;3.90;;
20743;SDS011;56303;52.160;-0.428;2023-04-25T05:31:09;8.13;;;2.87;;
20743;SDS011;56303;52.160;-0.428;2023-04-25T05:33:36;10.63;;;3.17;;
20743;SDS011;56303;52.160;-0.428;2023-04-25T05:36:03;7.57;;;3.10;;
20743;SDS011;56303;52.160;-0.428;2023-04-25T05:38:30;9.00;;;3.37;;
20743;SDS011;56303;52.160;-0.428;2023-04-25T05:41:00;10.30;;;3.67;;
20743;SDS011;56303;52.160;-0.428;2023-04-25T05:43:27;9.67;;;3.53;;
20743;SDS011;56303;52.160;-0.428;2023-04-25T05:45:53;6.17;;;2.57;;
20743;SDS011;56303;52.160;-0.428;2023-04-25T05:48:20;8.93;;;3.13;;
20743;SDS011;56303;52.160;-0.428;2023-04-25T05:50:47;7.10;;;2.87;;
20743;SDS011;56303;52.160;-0.428;2023-04-25T05:53:14;8.20;;;3.10;;
20743;SDS011;56303;52.160;-0.428;2023-04-25T05:55:41;6.37;;;2.87;;
20743;SDS011;56303;52.160;-0.428;2023-04-25T05:58:08;6.20;;;3.27;;
20743;SDS011;56303;52.160;-0.428;2023-04-25T06:00:34;8.43;;;2.97;;
20743;SDS011;56303;52.160;-0.428;2023-04-25T06:03:01;10.00;;;3.90;;
20743;SDS011;56303;52.160;-0.428;2023-04-25T06:05:29;10.10;;;3.13;;
20743;SDS011;56303;52.160;-0.428;2023-04-25T06:07:56;5.63;;;2.87;;
20743;SDS011;56303;52.160;-0.428;2023-04-25T06:10:23;8.30;;;3.40;;
20743;SDS011;56303;52.160;-0.428;2023-04-25T06:12:50;7.30;;;3.70;;
20743;SDS011;56303;52.160;-0.428;2023-04-25T06:15:17;5.60;;;3.37;;
20743;SDS011;56303;52.160;-0.428;2023-04-25T06:17:54;8.47;;;3.47;;
20743;SDS011;56303;52.160;-0.428;2023-04-25T06:20:21;7.73;;;3.13;;
20743;SDS011;56303;52.160;-0.428;2023-04-25T06:22:49;6.67;;;2.97;;
20743;SDS011;56303;52.160;-0.428;2023-04-25T06:25:17;7.87;;;3.13;;
20743;SDS011;56303;52.160;-0.428;2023-04-25T06:27:44;6.07;;;2.80;;
20743;SDS011;56303;52.160;-0.428;2023-04-25T06:30:11;6.63;;;3.17;;
20743;SDS011;56303;52.160;-0.428;2023-04-25T06:32:38;9.40;;;3.03;;
20743;SDS011;56303;52.160;-0.428;2023-04-25T06:35:05;6.13;;;3.03;;
20743;SDS011;56303;52.160;-0.428;2023-04-25T06:37:32;8.97;;;3.10;;
20743;SDS011;56303;52.160;-0.428;2023-04-25T06:39:59;8.30;;;3.63;;
20743;SDS011;56303;52.160;-0.428;2023-04-25T06:42:26;6.10;;;2.60;;
20743;SDS011;56303;52.160;-0.428;2023-04-25T06:44:53;5.70;;;2.97;;
20743;SDS011;56303;52.160;-0.428;2023-04-25T06:47:20;6.07;;;3.10;;
20743;SDS011;56303;52.160;-0.428;2023-04-25T06:49:47;7.37;;;2.50;;
20743;SDS011;56303;52.160;-0.428;2023-04-25T06:52:13;10.33;;;3.13;;
20743;SDS011;56303;52.160;-0.428;2023-04-25T06:54:41;10.73;;;2.90;;
20743;SDS011;56303;52.160;-0.428;2023-04-25T06:57:07;8.93;;;4.07;;
20743;SDS011;56303;52.160;-0.428;2023-04-25T06:59:34;9.37;;;4.03;;
20743;SDS011;56303;52.160;-0.428;2023-04-25T07:02:01;7.27;;;2.80;;
20743;SDS011;56303;52.160;-0.428;2023-04-25T07:04:28;6.87;;;3.00;;
20743;SDS011;56303;52.160;-0.428;2023-04-25T07:06:55;7.47;;;3.63;;
20743;SDS011;56303;52.160;-0.428;2023-04-25T07:09:23;7.63;;;2.93;;
20743;SDS011;56303;52.160;-0.428;2023-04-25T07:11:49;12.50;;;3.37;;
20743;SDS011;56303;52.160;-0.428;2023-04-25T07:14:16;7.40;;;3.27;;
20743;SDS011;56303;52.160;-0.428;2023-04-25T07:16:43;5.73;;;3.00;;
20743;SDS011;56303;52.160;-0.428;2023-04-25T07:19:10;8.43;;;2.83;;
20743;SDS011;56303;52.160;-0.428;2023-04-25T07:21:37;8.63;;;2.60;;
20743;SDS011;56303;52.160;-0.428;2023-04-25T07:24:04;8.23;;;3.00;;
20743;SDS011;56303;52.160;-0.428;2023-04-25T07:26:31;8.63;;;3.57;;
20743;SDS011;56303;52.160;-0.428;2023-04-25T07:28:58;10.67;;;3.17;;
20743;SDS011;56303;52.160;-0.428;2023-04-25T07:31:25;10.83;;;3.40;;
20743;SDS011;56303;52.160;-0.428;2023-04-25T07:33:53;9.17;;;2.80;;
20743;SDS011;56303;52.160;-0.428;2023-04-25T07:36:20;7.93;;;3.33;;
20743;SDS011;56303;52.160;-0.428;2023-04-25T07:38:47;7.40;;;2.80;;
20743;SDS011;56303;52.160;-0.428;2023-04-25T07:41:14;11.70;;;3.07;;
20743;SDS011;56303;52.160;-0.428;2023-04-25T07:43:41;8.33;;;2.80;;
20743;SDS011;56303;52.160;-0.428;2023-04-25T07:46:08;5.43;;;2.27;;
20743;SDS011;56303;52.160;-0.428;2023-04-25T07:48:35;8.67;;;2.53;;
20743;SDS011;56303;52.160;-0.428;2023-04-25T07:51:02;7.83;;;3.10;;
20743;SDS011;56303;52.160;-0.428;2023-04-25T07:53:30;8.30;;;2.40;;
20743;SDS011;56303;52.160;-0.428;2023-04-25T07:55:58;7.23;;;2.40;;
20743;SDS011;56303;52.160;-0.428;2023-04-25T07:58:25;9.90;;;2.60;;
20743;SDS011;56303;52.160;-0.428;2023-04-25T08:00:52;8.00;;;2.63;;
20743;SDS011;56303;52.160;-0.428;2023-04-25T08:03:19;10.17;;;2.70;;
20743;SDS011;56303;52.160;-0.428;2023-04-25T08:05:47;9.90;;;3.40;;
20743;SDS011;56303;52.160;-0.428;2023-04-25T08:08:15;6.17;;;2.33;;
20743;SDS011;56303;52.160;-0.428;2023-04-25T08:10:41;10.43;;;2.73;;
20743;SDS011;56303;52.160;-0.428;2023-04-25T08:13:08;7.93;;;2.73;;
20743;SDS011;56303;52.160;-0.428;2023-04-25T08:15:35;7.07;;;2.43;;
20743;SDS011;56303;52.160;-0.428;2023-04-25T08:18:02;8.53;;;2.43;;
20743;SDS011;56303;52.160;-0.428;2023-04-25T08:20:29;9.13;;;2.87;;
20743;SDS011;56303;52.160;-0.428;2023-04-25T08:22:56;5.87;;;2.27;;
20743;SDS011;56303;52.160;-0.428;2023-04-25T08:25:23;6.63;;;2.67;;
20743;SDS011;56303;52.160;-0.428;2023-04-25T08:27:50;7.80;;;2.90;;
20743;SDS011;56303;52.160;-0.428;2023-04-25T08:30:17;7.57;;;2.93;;
20743;SDS011;56303;52.160;-0.428;2023-04-25T08:32:44;10.27;;;2.53;;
20743;SDS011;56303;52.160;-0.428;2023-04-25T08:35:10;10.10;;;2.50;;
20743;SDS011;56303;52.160;-0.428;2023-04-25T08:37:38;6.30;;;2.60;;
20743;SDS011;56303;52.160;-0.428;2023-04-25T08:40:05;8.50;;;2.73;;
20743;SDS011;56303;52.160;-0.428;2023-04-25T08:42:33;6.00;;;2.50;;
20743;SDS011;56303;52.160;-0.428;2023-04-25T08:45:01;6.97;;;2.87;;
20743;SDS011;56303;52.160;-0.428;2023-04-25T08:47:33;9.17;;;2.77;;
20743;SDS011;56303;52.160;-0.428;2023-04-25T08:50:01;5.30;;;2.17;;
20743;SDS011;56303;52.160;-0.428;2023-04-25T08:52:30;5.60;;;2.00;;
20743;SDS011;56303;52.160;-0.428;2023-04-25T08:55:10;7.97;;;2.80;;
20743;SDS011;56303;52.160;-0.428;2023-04-25T08:57:40;6.10;;;2.07;;
20743;SDS011;56303;52.160;-0.428;2023-04-25T09:00:09;5.40;;;2.37;;
20743;SDS011;56303;52.160;-0.428;2023-04-25T09:02:39;7.57;;;2.60;;
20743;SDS011;56303;52.160;-0.428;2023-04-25T09:05:06;6.63;;;2.60;;
20743;SDS011;56303;52.160;-0.428;2023-04-25T09:07:35;4.70;;;2.33;;
20743;SDS011;56303;52.160;-0.428;2023-04-25T09:10:03;6.87;;;2.20;;
20743;SDS011;56303;52.160;-0.428;2023-04-25T09:12:30;6.43;;;2.27;;
20743;SDS011;56303;52.160;-0.428;2023-04-25T09:17:35;4.87;;;2.63;;
20743;SDS011;56303;52.160;-0.428;2023-04-25T09:20:10;6.57;;;3.10;;
20743;SDS011;56303;52.160;-0.428;2023-04-25T09:22:39;6.10;;;2.60;;
20743;SDS011;56303;52.160;-0.428;2023-04-25T09:25:10;6.37;;;2.70;;
20743;SDS011;56303;52.160;-0.428;2023-04-25T09:27:51;5.33;;;2.20;;
20743;SDS011;56303;52.160;-0.428;2023-04-25T09:30:31;4.03;;;2.03;;
20743;SDS011;56303;52.160;-0.428;2023-04-25T09:33:06;5.80;;;1.93;;
20743;SDS011;56303;52.160;-0.428;2023-04-25T09:35:35;5.97;;;2.10;;
20743;SDS011;56303;52.160;-0.428;2023-04-25T09:38:07;5.57;;;2.13;;
20743;SDS011;56303;52.160;-0.428;2023-04-25T09:40:39;5.57;;;2.10;;
20743;SDS011;56303;52.160;-0.428;2023-04-25T09:43:18;7.03;;;2.90;;
20743;SDS011;56303;52.160;-0.428;2023-04-25T09:45:47;4.97;;;2.10;;
20743;SDS011;56303;52.160;-0.428;2023-04-25T09:48:18;4.90;;;2.27;;
20743;SDS011;56303;52.160;-0.428;2023-04-25T09:53:38;3.20;;;1.70;;
20743;SDS011;56303;52.160;-0.428;2023-04-25T09:56:18;5.90;;;2.27;;
20743;SDS011;56303;52.160;-0.428;2023-04-25T09:58:46;5.13;;;1.97;;
20743;SDS011;56303;52.160;-0.428;2023-04-25T10:01:14;5.33;;;2.20;;
20743;SDS011;56303;52.160;-0.428;2023-04-25T10:03:42;7.30;;;2.40;;
20743;SDS011;56303;52.160;-0.428;2023-04-25T10:06:12;5.93;;;2.70;;
20743;SDS011;56303;52.160;-0.428;2023-04-25T10:08:45;6.50;;;2.07;;
20743;SDS011;56303;52.160;-0.428;2023-04-25T10:11:17;5.03;;;1.70;;
20743;SDS011;56303;52.160;-0.428;2023-04-25T10:13:45;4.67;;;2.07;;
20743;SDS011;56303;52.160;-0.428;2023-04-25T10:16:12;4.77;;;2.53;;
20743;SDS011;56303;52.160;-0.428;2023-04-25T10:18:39;7.50;;;2.73;;
20743;SDS011;56303;52.160;-0.428;2023-04-25T10:21:06;5.23;;;2.00;;
20743;SDS011;56303;52.160;-0.428;2023-04-25T10:23:33;5.37;;;2.00;;
20743;SDS011;56303;52.160;-0.428;2023-04-25T10:26:03;5.33;;;2.20;;
20743;SDS011;56303;52.160;-0.428;2023-04-25T10:28:30;5.50;;;2.27;;
20743;SDS011;56303;52.160;-0.428;2023-04-25T10:31:31;4.37;;;2.20;;
20743;SDS011;56303;52.160;-0.428;2023-04-25T10:34:01;4.50;;;2.23;;
20743;SDS011;56303;52.160;-0.428;2023-04-25T10:36:30;4.83;;;2.00;;
20743;SDS011;56303;52.160;-0.428;2023-04-25T10:38:58;4.20;;;2.03;;
20743;SDS011;56303;52.160;-0.428;2023-04-25T10:41:48;6.17;;;2.00;;
20743;SDS011;56303;52.160;-0.428;2023-04-25T10:44:22;4.73;;;2.27;;
20743;SDS011;56303;52.160;-0.428;2023-04-25T10:46:54;4.87;;;2.07;;
20743;SDS011;56303;52.160;-0.428;2023-04-25T10:49:40;3.43;;;2.10;;
20743;SDS011;56303;52.160;-0.428;2023-04-25T10:52:15;4.50;;;2.13;;
20743;SDS011;56303;52.160;-0.428;2023-04-25T10:54:46;2.87;;;1.80;;
20743;SDS011;56303;52.160;-0.428;2023-04-25T10:57:27;3.13;;;1.80;;
20743;SDS011;56303;52.160;-0.428;2023-04-25T11:00:13;5.33;;;2.07;;
20743;SDS011;56303;52.160;-0.428;2023-04-25T11:02:46;7.23;;;2.20;;
20743;SDS011;56303;52.160;-0.428;2023-04-25T11:07:58;6.97;;;2.33;;
20743;SDS011;56303;52.160;-0.428;2023-04-25T11:10:33;4.67;;;2.10;;
20743;SDS011;56303;52.160;-0.428;2023-04-25T11:13:03;3.20;;;1.90;;
20743;SDS011;56303;52.160;-0.428;2023-04-25T11:15:31;5.53;;;2.03;;
20743;SDS011;56303;52.160;-0.428;2023-04-25T11:17:58;4.53;;;1.97;;
20743;SDS011;56303;52.160;-0.428;2023-04-25T11:20:27;5.37;;;2.00;;
20743;SDS011;56303;52.160;-0.428;2023-04-25T11:22:57;2.70;;;1.80;;
20743;SDS011;56303;52.160;-0.428;2023-04-25T11:25:25;2.80;;;1.60;;
20743;SDS011;56303;52.160;-0.428;2023-04-25T11:27:56;5.57;;;1.90;;
20743;SDS011;56303;52.160;-0.428;2023-04-25T11:30:25;3.40;;;1.50;;
20743;SDS011;56303;52.160;-0.428;2023-04-25T11:32:52;2.67;;;1.73;;
20743;SDS011;56303;52.160;-0.428;2023-04-25T11:35:20;27.77;;;5.50;;
20743;SDS011;56303;52.160;-0.428;2023-04-25T11:37:49;4.50;;;1.97;;
20743;SDS011;56303;52.160;-0.428;2023-04-25T11:40:16;4.53;;;2.30;;
20743;SDS011;56303;52.160;-0.428;2023-04-25T11:42:44;5.30;;;2.30;;
20743;SDS011;56303;52.160;-0.428;2023-04-25T11:45:13;5.83;;;2.20;;
20743;SDS011;56303;52.160;-0.428;2023-04-25T11:47:40;3.70;;;2.40;;
20743;SDS011;56303;52.160;-0.428;2023-04-25T11:50:07;5.10;;;2.27;;
20743;SDS011;56303;52.160;-0.428;2023-04-25T11:52:42;9.33;;;4.57;;
20743;SDS011;56303;52.160;-0.428;2023-04-25T11:55:12;5.80;;;2.20;;
20743;SDS011;56303;52.160;-0.428;2023-04-25T11:57:44;3.60;;;2.13;;
20743;SDS011;56303;52.160;-0.428;2023-04-25T12:00:12;3.80;;;1.80;;
20743;SDS011;56303;52.160;-0.428;2023-04-25T12:02:44;3.23;;;2.00;;
20743;SDS011;56303;52.160;-0.428;2023-04-25T12:05:25;3.93;;;2.20;;
20743;SDS011;56303;52.160;-0.428;2023-04-25T12:08:15;5.33;;;2.37;;
20743;SDS011;56303;52.160;-0.428;2023-04-25T12:10:43;4.67;;;1.93;;
20743;SDS011;56303;52.160;-0.428;2023-04-25T12:13:22;4.40;;;2.47;;
20743;SDS011;56303;52.160;-0.428;2023-04-25T12:15:50;4.37;;;2.10;;
20743;SDS011;56303;52.160;-0.428;2023-04-25T12:18:20;4.80;;;1.90;;
20743;SDS011;56303;52.160;-0.428;2023-04-25T12:20:49;4.25;;;2.25;;
20743;SDS011;56303;52.160;-0.428;2023-04-25T12:23:15;4.10;;;2.17;;
20743;SDS011;56303;52.160;-0.428;2023-04-25T12:25:43;2.97;;;1.97;;
20743;SDS011;56303;52.160;-0.428;2023-04-25T12:28:15;6.10;;;2.47;;
20743;SDS011;56303;52.160;-0.428;2023-04-25T12:30:52;4.27;;;1.97;;
20743;SDS011;56303;52.160;-0.428;2023-04-25T12:33:34;5.93;;;1.97;;
20743;SDS011;56303;52.160;-0.428;2023-04-25T12:36:03;5.03;;;2.70;;
20743;SDS011;56303;52.160;-0.428;2023-04-25T12:38:36;6.17;;;2.67;;
20743;SDS011;56303;52.160;-0.428;2023-04-25T12:41:04;3.80;;;2.50;;
20743;SDS011;56303;52.160;-0.428;2023-04-25T12:43:32;4.03;;;2.40;;
20743;SDS011;56303;52.160;-0.428;2023-04-25T12:45:59;6.70;;;2.53;;
20743;SDS011;56303;52.160;-0.428;2023-04-25T12:48:26;4.40;;;2.33;;
20743;SDS011;56303;52.160;-0.428;2023-04-25T12:50:53;5.47;;;2.20;;
20743;SDS011;56303;52.160;-0.428;2023-04-25T12:53:21;3.83;;;2.43;;
20743;SDS011;56303;52.160;-0.428;2023-04-25T12:55:49;3.67;;;2.57;;
20743;SDS011;56303;52.160;-0.428;2023-04-25T12:58:17;6.33;;;2.77;;
20743;SDS011;56303;52.160;-0.428;2023-04-25T13:00:45;4.50;;;2.13;;
20743;SDS011;56303;52.160;-0.428;2023-04-25T13:03:13;4.97;;;2.20;;
20743;SDS011;56303;52.160;-0.428;2023-04-25T13:05:40;6.03;;;2.47;;
20743;SDS011;56303;52.160;-0.428;2023-04-25T13:08:07;4.07;;;2.50;;
20743;SDS011;56303;52.160;-0.428;2023-04-25T13:10:34;5.90;;;3.17;;
20743;SDS011;56303;52.160;-0.428;2023-04-25T13:13:02;4.77;;;2.80;;
20743;SDS011;56303;52.160;-0.428;2023-04-25T13:15:29;6.13;;;2.70;;
20743;SDS011;56303;52.160;-0.428;2023-04-25T13:17:56;5.43;;;2.37;;
20743;SDS011;56303;52.160;-0.428;2023-04-25T13:20:23;6.23;;;2.53;;
20743;SDS011;56303;52.160;-0.428;2023-04-25T13:22:50;7.97;;;2.93;;
20743;SDS011;56303;52.160;-0.428;2023-04-25T13:25:17;6.20;;;2.60;;
20743;SDS011;56303;52.160;-0.428;2023-04-25T13:27:44;6.03;;;2.70;;
20743;SDS011;56303;52.160;-0.428;2023-04-25T13:30:12;5.90;;;2.93;;
20743;SDS011;56303;52.160;-0.428;2023-04-25T13:32:40;5.17;;;2.90;;
20743;SDS011;56303;52.160;-0.428;2023-04-25T13:35:08;5.07;;;3.03;;
20743;SDS011;56303;52.160;-0.428;2023-04-25T13:37:37;4.67;;;2.50;;
20743;SDS011;56303;52.160;-0.428;2023-04-25T13:40:05;4.60;;;2.63;;
20743;SDS011;56303;52.160;-0.428;2023-04-25T13:42:36;5.87;;;2.37;;
20743;SDS011;56303;52.160;-0.428;2023-04-25T13:45:04;5.30;;;2.60;;
20743;SDS011;56303;52.160;-0.428;2023-04-25T13:47:32;5.13;;;2.53;;
20743;SDS011;56303;52.160;-0.428;2023-04-25T13:49:59;6.47;;;2.23;;
20743;SDS011;56303;52.160;-0.428;2023-04-25T13:52:28;6.37;;;2.73;;
20743;SDS011;56303;52.160;-0.428;2023-04-25T13:54:55;8.13;;;2.67;;
20743;SDS011;56303;52.160;-0.428;2023-04-25T13:57:22;4.97;;;2.67;;
20743;SDS011;56303;52.160;-0.428;2023-04-25T13:59:50;5.17;;;3.03;;
20743;SDS011;56303;52.160;-0.428;2023-04-25T14:02:17;4.10;;;2.60;;
20743;SDS011;56303;52.160;-0.428;2023-04-25T14:04:44;5.17;;;2.53;;
20743;SDS011;56303;52.160;-0.428;2023-04-25T14:07:11;4.50;;;2.40;;
20743;SDS011;56303;52.160;-0.428;2023-04-25T14:09:38;6.33;;;2.90;;
20743;SDS011;56303;52.160;-0.428;2023-04-25T14:12:05;4.50;;;2.30;;
20743;SDS011;56303;52.160;-0.428;2023-04-25T14:14:32;5.37;;;2.30;;
20743;SDS011;56303;52.160;-0.428;2023-04-25T14:16:59;3.67;;;2.20;;
20743;SDS011;56303;52.160;-0.428;2023-04-25T14:19:26;6.00;;;2.50;;
20743;SDS011;56303;52.160;-0.428;2023-04-25T14:21:54;5.73;;;2.67;;
20743;SDS011;56303;52.160;-0.428;2023-04-25T14:24:21;5.03;;;3.03;;
20743;SDS011;56303;52.160;-0.428;2023-04-25T14:26:48;6.63;;;2.57;;
20743;SDS011;56303;52.160;-0.428;2023-04-25T14:29:14;5.00;;;2.50;;
20743;SDS011;56303;52.160;-0.428;2023-04-25T14:31:41;6.13;;;3.03;;
20743;SDS011;56303;52.160;-0.428;2023-04-25T14:34:08;4.60;;;2.73;;
20743;SDS011;56303;52.160;-0.428;2023-04-25T14:36:35;9.80;;;3.83;;
20743;SDS011;56303;52.160;-0.428;2023-04-25T14:39:03;5.27;;;3.93;;
20743;SDS011;56303;52.160;-0.428;2023-04-25T14:41:31;7.23;;;2.90;;
20743;SDS011;56303;52.160;-0.428;2023-04-25T14:43:58;4.80;;;2.83;;
20743;SDS011;56303;52.160;-0.428;2023-04-25T14:46:25;7.93;;;2.77;;